sensor_id;sensor_type;location;lat;lon;timestamp;P1;durP1;ratioP1;P2;durP2;ratioP2
41627;SDS011;27321;50.816;6.054;2023-04-03T00:02:49;8.00;;;3.17;;
41627;SDS011;27321;50.816;6.054;2023-04-03T00:05:50;5.97;;;2.60;;
41627;SDS011;27321;50.816;6.054;2023-04-03T00:08:51;5.32;;;2.53;;
41627;SDS011;27321;50.816;6.054;2023-04-03T00:11:52;3.75;;;2.20;;
41627;SDS011;27321;50.816;6.054;2023-04-03T00:14:53;4.77;;;2.00;;
41627;SDS011;27321;50.816;6.054;2023-04-03T00:17:54;3.53;;;1.95;;
41627;SDS011;27321;50.816;6.054;2023-04-03T00:20:56;5.07;;;2.17;;
41627;SDS011;27321;50.816;6.054;2023-04-03T00:23:57;3.03;;;1.97;;
41627;SDS011;27321;50.816;6.054;2023-04-03T00:26:58;2.63;;;1.75;;
41627;SDS011;27321;50.816;6.054;2023-04-03T00:29:59;3.90;;;1.80;;
41627;SDS011;27321;50.816;6.054;2023-04-03T00:33:00;2.33;;;1.60;;
41627;SDS011;27321;50.816;6.054;2023-04-03T00:36:08;2.87;;;1.87;;
41627;SDS011;27321;50.816;6.054;2023-04-03T00:39:10;4.87;;;2.03;;
41627;SDS011;27321;50.816;6.054;2023-04-03T00:42:11;4.50;;;2.20;;
41627;SDS011;27321;50.816;6.054;2023-04-03T00:45:26;3.70;;;1.70;;
41627;SDS011;27321;50.816;6.054;2023-04-03T00:48:39;4.23;;;1.90;;
41627;SDS011;27321;50.816;6.054;2023-04-03T00:51:43;2.30;;;1.57;;
41627;SDS011;27321;50.816;6.054;2023-04-03T00:54:45;3.30;;;1.48;;
41627;SDS011;27321;50.816;6.054;2023-04-03T00:57:48;2.97;;;1.77;;
41627;SDS011;27321;50.816;6.054;2023-04-03T01:00:55;4.17;;;1.87;;
41627;SDS011;27321;50.816;6.054;2023-04-03T01:03:59;3.57;;;1.57;;
41627;SDS011;27321;50.816;6.054;2023-04-03T01:07:08;4.37;;;1.83;;
41627;SDS011;27321;50.816;6.054;2023-04-03T01:10:18;5.00;;;2.03;;
41627;SDS011;27321;50.816;6.054;2023-04-03T01:13:26;2.57;;;1.50;;
41627;SDS011;27321;50.816;6.054;2023-04-03T01:16:30;2.80;;;1.53;;
41627;SDS011;27321;50.816;6.054;2023-04-03T01:19:32;3.07;;;1.53;;
41627;SDS011;27321;50.816;6.054;2023-04-03T01:22:44;4.13;;;1.93;;
41627;SDS011;27321;50.816;6.054;2023-04-03T01:26:00;2.50;;;1.42;;
41627;SDS011;27321;50.816;6.054;2023-04-03T01:29:03;3.37;;;1.60;;
41627;SDS011;27321;50.816;6.054;2023-04-03T01:32:04;2.78;;;1.73;;
41627;SDS011;27321;50.816;6.054;2023-04-03T01:35:07;4.35;;;1.73;;
41627;SDS011;27321;50.816;6.054;2023-04-03T01:38:09;3.53;;;1.90;;
41627;SDS011;27321;50.816;6.054;2023-04-03T01:41:10;3.22;;;1.42;;
41627;SDS011;27321;50.816;6.054;2023-04-03T01:44:12;1.45;;;1.20;;
41627;SDS011;27321;50.816;6.054;2023-04-03T01:47:13;3.22;;;1.60;;
41627;SDS011;27321;50.816;6.054;2023-04-03T01:50:14;1.55;;;1.40;;
41627;SDS011;27321;50.816;6.054;2023-04-03T01:53:15;3.90;;;1.63;;
41627;SDS011;27321;50.816;6.054;2023-04-03T01:56:17;4.07;;;1.67;;
41627;SDS011;27321;50.816;6.054;2023-04-03T01:59:19;2.23;;;1.23;;
41627;SDS011;27321;50.816;6.054;2023-04-03T02:02:20;3.60;;;1.75;;
41627;SDS011;27321;50.816;6.054;2023-04-03T02:05:21;4.07;;;1.57;;
41627;SDS011;27321;50.816;6.054;2023-04-03T02:08:22;3.33;;;1.33;;
41627;SDS011;27321;50.816;6.054;2023-04-03T02:11:23;1.70;;;1.40;;
41627;SDS011;27321;50.816;6.054;2023-04-03T02:14:24;2.80;;;1.43;;
41627;SDS011;27321;50.816;6.054;2023-04-03T02:17:26;2.13;;;1.27;;
41627;SDS011;27321;50.816;6.054;2023-04-03T02:23:29;2.00;;;1.50;;
41627;SDS011;27321;50.816;6.054;2023-04-03T02:26:30;3.03;;;1.57;;
41627;SDS011;27321;50.816;6.054;2023-04-03T02:29:31;1.90;;;1.27;;
41627;SDS011;27321;50.816;6.054;2023-04-03T02:32:32;2.80;;;1.50;;
41627;SDS011;27321;50.816;6.054;2023-04-03T02:35:34;4.13;;;2.22;;
41627;SDS011;27321;50.816;6.054;2023-04-03T02:38:35;5.38;;;2.72;;
41627;SDS011;27321;50.816;6.054;2023-04-03T02:41:37;4.80;;;2.42;;
41627;SDS011;27321;50.816;6.054;2023-04-03T02:44:43;3.07;;;2.00;;
41627;SDS011;27321;50.816;6.054;2023-04-03T02:47:45;2.83;;;2.20;;
41627;SDS011;27321;50.816;6.054;2023-04-03T02:50:46;3.77;;;2.30;;
41627;SDS011;27321;50.816;6.054;2023-04-03T02:53:47;3.40;;;2.43;;
41627;SDS011;27321;50.816;6.054;2023-04-03T02:56:53;4.40;;;2.47;;
41627;SDS011;27321;50.816;6.054;2023-04-03T02:59:54;3.83;;;2.35;;
41627;SDS011;27321;50.816;6.054;2023-04-03T03:02:56;3.67;;;2.35;;
41627;SDS011;27321;50.816;6.054;2023-04-03T03:06:01;2.40;;;2.20;;
41627;SDS011;27321;50.816;6.054;2023-04-03T03:09:11;3.10;;;2.40;;
41627;SDS011;27321;50.816;6.054;2023-04-03T03:12:13;4.37;;;2.60;;
41627;SDS011;27321;50.816;6.054;2023-04-03T03:15:14;3.72;;;2.55;;
41627;SDS011;27321;50.816;6.054;2023-04-03T03:18:16;4.38;;;2.80;;
41627;SDS011;27321;50.816;6.054;2023-04-03T03:21:17;7.65;;;3.53;;
41627;SDS011;27321;50.816;6.054;2023-04-03T03:24:18;4.40;;;3.63;;
41627;SDS011;27321;50.816;6.054;2023-04-03T03:27:19;4.07;;;2.90;;
41627;SDS011;27321;50.816;6.054;2023-04-03T03:30:21;6.43;;;3.60;;
41627;SDS011;27321;50.816;6.054;2023-04-03T03:33:22;4.57;;;3.42;;
41627;SDS011;27321;50.816;6.054;2023-04-03T03:36:23;3.78;;;2.95;;
41627;SDS011;27321;50.816;6.054;2023-04-03T03:39:24;3.50;;;2.73;;
41627;SDS011;27321;50.816;6.054;2023-04-03T03:42:25;3.05;;;2.53;;
41627;SDS011;27321;50.816;6.054;2023-04-03T03:45:26;4.00;;;2.57;;
41627;SDS011;27321;50.816;6.054;2023-04-03T03:48:28;4.85;;;2.83;;
41627;SDS011;27321;50.816;6.054;2023-04-03T03:54:31;4.93;;;3.15;;
41627;SDS011;27321;50.816;6.054;2023-04-03T03:57:32;4.90;;;2.60;;
41627;SDS011;27321;50.816;6.054;2023-04-03T04:00:33;3.03;;;2.13;;
41627;SDS011;27321;50.816;6.054;2023-04-03T04:03:35;2.95;;;2.40;;
41627;SDS011;27321;50.816;6.054;2023-04-03T04:06:38;3.27;;;2.23;;
41627;SDS011;27321;50.816;6.054;2023-04-03T04:09:42;4.53;;;2.40;;
41627;SDS011;27321;50.816;6.054;2023-04-03T04:12:43;3.45;;;2.50;;
41627;SDS011;27321;50.816;6.054;2023-04-03T04:15:45;2.97;;;2.22;;
41627;SDS011;27321;50.816;6.054;2023-04-03T04:18:47;3.67;;;2.57;;
41627;SDS011;27321;50.816;6.054;2023-04-03T04:21:49;2.88;;;2.63;;
41627;SDS011;27321;50.816;6.054;2023-04-03T04:24:51;3.40;;;2.57;;
41627;SDS011;27321;50.816;6.054;2023-04-03T04:27:52;4.07;;;2.65;;
41627;SDS011;27321;50.816;6.054;2023-04-03T04:30:53;4.13;;;2.87;;
41627;SDS011;27321;50.816;6.054;2023-04-03T04:33:56;3.03;;;2.50;;
41627;SDS011;27321;50.816;6.054;2023-04-03T04:36:56;2.63;;;2.37;;
41627;SDS011;27321;50.816;6.054;2023-04-03T04:39:59;3.90;;;2.80;;
41627;SDS011;27321;50.816;6.054;2023-04-03T04:43:00;3.58;;;2.95;;
41627;SDS011;27321;50.816;6.054;2023-04-03T04:46:05;4.03;;;3.10;;
41627;SDS011;27321;50.816;6.054;2023-04-03T04:49:13;5.40;;;3.25;;
41627;SDS011;27321;50.816;6.054;2023-04-03T04:52:14;4.87;;;3.00;;
41627;SDS011;27321;50.816;6.054;2023-04-03T04:55:16;4.68;;;2.90;;
41627;SDS011;27321;50.816;6.054;2023-04-03T04:58:17;3.45;;;2.97;;
41627;SDS011;27321;50.816;6.054;2023-04-03T05:01:19;6.93;;;3.47;;
41627;SDS011;27321;50.816;6.054;2023-04-03T05:04:38;3.77;;;2.70;;
41627;SDS011;27321;50.816;6.054;2023-04-03T05:07:45;5.77;;;3.10;;
41627;SDS011;27321;50.816;6.054;2023-04-03T05:10:47;4.85;;;3.28;;
41627;SDS011;27321;50.816;6.054;2023-04-03T05:13:49;4.90;;;3.20;;
41627;SDS011;27321;50.816;6.054;2023-04-03T05:16:51;5.10;;;3.53;;
41627;SDS011;27321;50.816;6.054;2023-04-03T05:19:54;5.03;;;3.83;;
41627;SDS011;27321;50.816;6.054;2023-04-03T05:22:57;4.23;;;3.37;;
41627;SDS011;27321;50.816;6.054;2023-04-03T05:25:58;5.25;;;3.47;;
41627;SDS011;27321;50.816;6.054;2023-04-03T05:28:59;5.05;;;3.60;;
41627;SDS011;27321;50.816;6.054;2023-04-03T05:32:01;4.38;;;3.45;;
41627;SDS011;27321;50.816;6.054;2023-04-03T05:35:02;4.67;;;3.63;;
41627;SDS011;27321;50.816;6.054;2023-04-03T05:38:03;4.07;;;3.67;;
41627;SDS011;27321;50.816;6.054;2023-04-03T05:41:06;4.23;;;3.70;;
41627;SDS011;27321;50.816;6.054;2023-04-03T05:44:08;4.20;;;3.40;;
41627;SDS011;27321;50.816;6.054;2023-04-03T05:47:09;4.07;;;3.33;;
41627;SDS011;27321;50.816;6.054;2023-04-03T05:50:10;4.95;;;3.75;;
41627;SDS011;27321;50.816;6.054;2023-04-03T05:53:14;6.15;;;4.03;;
41627;SDS011;27321;50.816;6.054;2023-04-03T05:56:24;6.45;;;4.18;;
41627;SDS011;27321;50.816;6.054;2023-04-03T05:59:28;6.53;;;3.80;;
41627;SDS011;27321;50.816;6.054;2023-04-03T06:02:34;4.70;;;4.00;;
41627;SDS011;27321;50.816;6.054;2023-04-03T06:05:36;4.53;;;4.00;;
41627;SDS011;27321;50.816;6.054;2023-04-03T06:08:37;6.47;;;4.10;;
41627;SDS011;27321;50.816;6.054;2023-04-03T06:11:38;5.07;;;4.45;;
41627;SDS011;27321;50.816;6.054;2023-04-03T06:14:39;6.70;;;4.68;;
41627;SDS011;27321;50.816;6.054;2023-04-03T06:17:41;6.30;;;4.53;;
41627;SDS011;27321;50.816;6.054;2023-04-03T06:20:42;6.80;;;5.00;;
41627;SDS011;27321;50.816;6.054;2023-04-03T06:23:43;6.55;;;4.85;;
41627;SDS011;27321;50.816;6.054;2023-04-03T06:26:44;6.37;;;4.83;;
41627;SDS011;27321;50.816;6.054;2023-04-03T06:29:46;9.68;;;4.60;;
41627;SDS011;27321;50.816;6.054;2023-04-03T06:35:49;6.90;;;4.10;;
41627;SDS011;27321;50.816;6.054;2023-04-03T06:38:50;4.40;;;3.77;;
41627;SDS011;27321;50.816;6.054;2023-04-03T06:41:51;7.85;;;4.32;;
41627;SDS011;27321;50.816;6.054;2023-04-03T06:47:53;6.97;;;3.63;;
41627;SDS011;27321;50.816;6.054;2023-04-03T06:50:54;6.37;;;3.77;;
41627;SDS011;27321;50.816;6.054;2023-04-03T06:53:57;4.88;;;3.85;;
41627;SDS011;27321;50.816;6.054;2023-04-03T06:56:59;7.17;;;4.20;;
41627;SDS011;27321;50.816;6.054;2023-04-03T07:00:00;7.13;;;3.43;;
41627;SDS011;27321;50.816;6.054;2023-04-03T07:03:03;5.33;;;3.60;;
41627;SDS011;27321;50.816;6.054;2023-04-03T07:06:04;4.50;;;3.20;;
41627;SDS011;27321;50.816;6.054;2023-04-03T07:09:07;5.57;;;3.60;;
41627;SDS011;27321;50.816;6.054;2023-04-03T07:12:09;7.03;;;3.43;;
41627;SDS011;27321;50.816;6.054;2023-04-03T07:15:10;3.53;;;2.80;;
41627;SDS011;27321;50.816;6.054;2023-04-03T07:18:15;6.80;;;3.30;;
41627;SDS011;27321;50.816;6.054;2023-04-03T07:21:17;4.88;;;2.83;;
41627;SDS011;27321;50.816;6.054;2023-04-03T07:24:18;4.57;;;2.80;;
41627;SDS011;27321;50.816;6.054;2023-04-03T07:27:19;3.43;;;2.67;;
41627;SDS011;27321;50.816;6.054;2023-04-03T07:30:20;6.47;;;3.17;;
41627;SDS011;27321;50.816;6.054;2023-04-03T07:33:23;4.75;;;2.65;;
41627;SDS011;27321;50.816;6.054;2023-04-03T07:36:24;4.17;;;2.60;;
41627;SDS011;27321;50.816;6.054;2023-04-03T07:39:26;7.38;;;2.42;;
41627;SDS011;27321;50.816;6.054;2023-04-03T07:42:28;4.40;;;2.40;;
41627;SDS011;27321;50.816;6.054;2023-04-03T07:45:29;3.60;;;2.30;;
41627;SDS011;27321;50.816;6.054;2023-04-03T07:48:30;7.63;;;2.97;;
41627;SDS011;27321;50.816;6.054;2023-04-03T07:51:31;5.73;;;2.63;;
41627;SDS011;27321;50.816;6.054;2023-04-03T07:54:32;4.00;;;2.40;;
41627;SDS011;27321;50.816;6.054;2023-04-03T07:57:37;5.07;;;2.40;;
41627;SDS011;27321;50.816;6.054;2023-04-03T08:00:38;5.17;;;2.67;;
41627;SDS011;27321;50.816;6.054;2023-04-03T08:03:39;3.78;;;2.63;;
41627;SDS011;27321;50.816;6.054;2023-04-03T08:06:40;4.00;;;2.20;;
41627;SDS011;27321;50.816;6.054;2023-04-03T08:09:41;3.60;;;2.37;;
41627;SDS011;27321;50.816;6.054;2023-04-03T08:12:45;4.90;;;2.60;;
41627;SDS011;27321;50.816;6.054;2023-04-03T08:15:47;4.57;;;2.60;;
41627;SDS011;27321;50.816;6.054;2023-04-03T08:18:48;5.30;;;2.53;;
41627;SDS011;27321;50.816;6.054;2023-04-03T08:21:49;7.40;;;2.88;;
41627;SDS011;27321;50.816;6.054;2023-04-03T08:24:50;4.68;;;2.72;;
41627;SDS011;27321;50.816;6.054;2023-04-03T08:27:51;5.85;;;2.35;;
41627;SDS011;27321;50.816;6.054;2023-04-03T08:30:52;3.97;;;2.40;;
41627;SDS011;27321;50.816;6.054;2023-04-03T08:33:54;3.28;;;2.17;;
41627;SDS011;27321;50.816;6.054;2023-04-03T08:36:57;3.47;;;2.40;;
41627;SDS011;27321;50.816;6.054;2023-04-03T08:39:58;2.63;;;1.80;;
41627;SDS011;27321;50.816;6.054;2023-04-03T08:49:47;2.53;;;1.43;;
41627;SDS011;27321;50.816;6.054;2023-04-03T08:52:55;5.57;;;1.50;;
41627;SDS011;27321;50.816;6.054;2023-04-03T08:55:59;4.03;;;1.80;;
41627;SDS011;27321;50.816;6.054;2023-04-03T08:59:14;4.40;;;1.90;;
41627;SDS011;27321;50.816;6.054;2023-04-03T09:02:29;3.27;;;2.00;;
41627;SDS011;27321;50.816;6.054;2023-04-03T09:05:39;9.33;;;2.47;;
41627;SDS011;27321;50.816;6.054;2023-04-03T09:12:46;5.28;;;2.08;;
41627;SDS011;27321;50.816;6.054;2023-04-03T09:19:49;3.03;;;1.80;;
41627;SDS011;27321;50.816;6.054;2023-04-03T09:23:04;1.90;;;1.43;;
41627;SDS011;27321;50.816;6.054;2023-04-03T09:26:31;4.87;;;1.97;;
41627;SDS011;27321;50.816;6.054;2023-04-03T09:29:38;4.50;;;1.90;;
41627;SDS011;27321;50.816;6.054;2023-04-03T09:32:47;4.90;;;1.90;;
41627;SDS011;27321;50.816;6.054;2023-04-03T09:35:53;3.27;;;1.80;;
41627;SDS011;27321;50.816;6.054;2023-04-03T09:39:04;4.20;;;1.80;;
41627;SDS011;27321;50.816;6.054;2023-04-03T09:42:14;4.13;;;2.07;;
41627;SDS011;27321;50.816;6.054;2023-04-03T09:48:27;2.77;;;1.83;;
41627;SDS011;27321;50.816;6.054;2023-04-03T09:51:28;5.20;;;2.10;;
41627;SDS011;27321;50.816;6.054;2023-04-03T09:54:37;4.53;;;1.97;;
41627;SDS011;27321;50.816;6.054;2023-04-03T09:57:41;3.77;;;1.63;;
41627;SDS011;27321;50.816;6.054;2023-04-03T10:03:44;4.07;;;1.83;;
41627;SDS011;27321;50.816;6.054;2023-04-03T10:06:47;3.50;;;1.93;;
41627;SDS011;27321;50.816;6.054;2023-04-03T10:09:58;4.00;;;1.83;;
41627;SDS011;27321;50.816;6.054;2023-04-03T10:13:18;3.07;;;1.70;;
41627;SDS011;27321;50.816;6.054;2023-04-03T10:16:25;3.87;;;1.50;;
41627;SDS011;27321;50.816;6.054;2023-04-03T10:19:36;4.27;;;1.20;;
41627;SDS011;27321;50.816;6.054;2023-04-03T10:40:57;2.80;;;1.00;;
41627;SDS011;27321;50.816;6.054;2023-04-03T10:44:35;3.87;;;1.10;;
41627;SDS011;27321;50.816;6.054;2023-04-03T10:51:43;5.60;;;1.30;;
41627;SDS011;27321;50.816;6.054;2023-04-03T10:58:03;3.77;;;1.37;;
41627;SDS011;27321;50.816;6.054;2023-04-03T11:01:08;3.77;;;1.23;;
41627;SDS011;27321;50.816;6.054;2023-04-03T11:04:26;7.50;;;1.03;;
41627;SDS011;27321;50.816;6.054;2023-04-03T11:07:39;2.33;;;1.20;;
41627;SDS011;27321;50.816;6.054;2023-04-03T11:10:57;2.00;;;1.00;;
41627;SDS011;27321;50.816;6.054;2023-04-03T11:18:04;2.30;;;1.10;;
41627;SDS011;27321;50.816;6.054;2023-04-03T11:22:50;2.83;;;1.07;;
41627;SDS011;27321;50.816;6.054;2023-04-03T11:25:46;2.43;;;1.10;;
41627;SDS011;27321;50.816;6.054;2023-04-03T11:29:03;3.53;;;1.30;;
41627;SDS011;27321;50.816;6.054;2023-04-03T11:32:29;3.17;;;1.00;;
41627;SDS011;27321;50.816;6.054;2023-04-03T11:35:59;1.17;;;0.80;;
41627;SDS011;27321;50.816;6.054;2023-04-03T11:39:17;2.17;;;0.80;;
41627;SDS011;27321;50.816;6.054;2023-04-03T11:42:25;2.80;;;1.20;;
41627;SDS011;27321;50.816;6.054;2023-04-03T11:45:53;2.37;;;1.10;;
41627;SDS011;27321;50.816;6.054;2023-04-03T11:49:04;3.13;;;1.10;;
41627;SDS011;27321;50.816;6.054;2023-04-03T11:52:09;3.90;;;1.20;;
41627;SDS011;27321;50.816;6.054;2023-04-03T11:58:22;2.90;;;0.90;;
41627;SDS011;27321;50.816;6.054;2023-04-03T12:01:45;2.30;;;1.03;;
41627;SDS011;27321;50.816;6.054;2023-04-03T12:11:34;2.87;;;1.10;;
41627;SDS011;27321;50.816;6.054;2023-04-03T12:14:37;3.33;;;1.23;;
41627;SDS011;27321;50.816;6.054;2023-04-03T12:17:39;2.15;;;1.30;;
41627;SDS011;27321;50.816;6.054;2023-04-03T12:20:57;1.80;;;0.83;;
41627;SDS011;27321;50.816;6.054;2023-04-03T12:27:14;2.03;;;0.90;;
41627;SDS011;27321;50.816;6.054;2023-04-03T12:30:57;1.70;;;0.97;;
41627;SDS011;27321;50.816;6.054;2023-04-03T12:34:24;1.70;;;0.90;;
41627;SDS011;27321;50.816;6.054;2023-04-03T12:45:22;1.30;;;0.70;;
41627;SDS011;27321;50.816;6.054;2023-04-03T12:48:27;1.20;;;1.00;;
41627;SDS011;27321;50.816;6.054;2023-04-03T12:54:44;3.38;;;1.35;;
41627;SDS011;27321;50.816;6.054;2023-04-03T12:57:46;1.53;;;0.80;;
41627;SDS011;27321;50.816;6.054;2023-04-03T13:01:02;3.45;;;1.00;;
41627;SDS011;27321;50.816;6.054;2023-04-03T13:04:11;1.27;;;0.67;;
41627;SDS011;27321;50.816;6.054;2023-04-03T13:07:23;1.90;;;0.73;;
41627;SDS011;27321;50.816;6.054;2023-04-03T13:10:35;1.70;;;0.77;;
41627;SDS011;27321;50.816;6.054;2023-04-03T13:14:49;2.93;;;1.00;;
41627;SDS011;27321;50.816;6.054;2023-04-03T13:17:37;4.07;;;1.20;;
41627;SDS011;27321;50.816;6.054;2023-04-03T13:20:39;2.13;;;0.80;;
41627;SDS011;27321;50.816;6.054;2023-04-03T13:23:43;1.00;;;0.65;;
41627;SDS011;27321;50.816;6.054;2023-04-03T13:26:49;1.93;;;0.80;;
41627;SDS011;27321;50.816;6.054;2023-04-03T13:29:53;1.27;;;0.70;;
41627;SDS011;27321;50.816;6.054;2023-04-03T13:32:59;1.90;;;0.70;;
41627;SDS011;27321;50.816;6.054;2023-04-03T13:36:10;1.63;;;1.00;;
41627;SDS011;27321;50.816;6.054;2023-04-03T13:39:36;2.73;;;0.87;;
41627;SDS011;27321;50.816;6.054;2023-04-03T13:42:39;2.30;;;0.80;;
41627;SDS011;27321;50.816;6.054;2023-04-03T13:45:53;0.50;;;0.50;;
41627;SDS011;27321;50.816;6.054;2023-04-03T13:52:43;1.13;;;0.60;;
41627;SDS011;27321;50.816;6.054;2023-04-03T14:02:14;1.43;;;0.60;;
41627;SDS011;27321;50.816;6.054;2023-04-03T14:05:20;1.80;;;0.90;;
41627;SDS011;27321;50.816;6.054;2023-04-03T14:08:21;3.43;;;1.77;;
41627;SDS011;27321;50.816;6.054;2023-04-03T14:11:24;2.72;;;1.65;;
41627;SDS011;27321;50.816;6.054;2023-04-03T14:14:30;2.60;;;1.30;;
41627;SDS011;27321;50.816;6.054;2023-04-03T14:17:33;1.10;;;0.70;;
41627;SDS011;27321;50.816;6.054;2023-04-03T14:20:35;2.13;;;1.60;;
41627;SDS011;27321;50.816;6.054;2023-04-03T14:23:37;2.00;;;1.25;;
41627;SDS011;27321;50.816;6.054;2023-04-03T14:26:39;1.27;;;1.13;;
41627;SDS011;27321;50.816;6.054;2023-04-03T14:29:41;2.35;;;1.00;;
41627;SDS011;27321;50.816;6.054;2023-04-03T14:32:42;3.73;;;1.10;;
41627;SDS011;27321;50.816;6.054;2023-04-03T14:35:43;2.58;;;0.90;;
41627;SDS011;27321;50.816;6.054;2023-04-03T14:38:46;1.40;;;0.90;;
41627;SDS011;27321;50.816;6.054;2023-04-03T14:41:48;3.23;;;0.70;;
41627;SDS011;27321;50.816;6.054;2023-04-03T14:44:49;3.03;;;1.00;;
41627;SDS011;27321;50.816;6.054;2023-04-03T14:47:52;2.23;;;0.80;;
41627;SDS011;27321;50.816;6.054;2023-04-03T14:50:55;3.40;;;1.20;;
41627;SDS011;27321;50.816;6.054;2023-04-03T14:53:57;3.53;;;1.55;;
41627;SDS011;27321;50.816;6.054;2023-04-03T14:56:58;0.97;;;0.73;;
41627;SDS011;27321;50.816;6.054;2023-04-03T15:00:01;1.67;;;1.00;;
41627;SDS011;27321;50.816;6.054;2023-04-03T15:03:04;1.80;;;0.80;;
41627;SDS011;27321;50.816;6.054;2023-04-03T15:06:05;1.20;;;0.70;;
41627;SDS011;27321;50.816;6.054;2023-04-03T15:09:31;2.10;;;0.60;;
41627;SDS011;27321;50.816;6.054;2023-04-03T15:12:31;1.43;;;0.90;;
41627;SDS011;27321;50.816;6.054;2023-04-03T15:15:32;1.40;;;0.77;;
41627;SDS011;27321;50.816;6.054;2023-04-03T15:18:36;1.43;;;1.20;;
41627;SDS011;27321;50.816;6.054;2023-04-03T15:21:39;2.80;;;1.10;;
41627;SDS011;27321;50.816;6.054;2023-04-03T15:24:40;1.17;;;0.80;;
41627;SDS011;27321;50.816;6.054;2023-04-03T15:30:43;0.67;;;0.60;;
41627;SDS011;27321;50.816;6.054;2023-04-03T15:33:44;2.28;;;0.85;;
41627;SDS011;27321;50.816;6.054;2023-04-03T15:36:47;1.30;;;0.80;;
41627;SDS011;27321;50.816;6.054;2023-04-03T15:39:49;1.88;;;0.70;;
41627;SDS011;27321;50.816;6.054;2023-04-03T15:42:49;1.67;;;0.60;;
41627;SDS011;27321;50.816;6.054;2023-04-03T15:45:50;1.13;;;0.63;;
41627;SDS011;27321;50.816;6.054;2023-04-03T15:48:54;1.07;;;0.50;;
41627;SDS011;27321;50.816;6.054;2023-04-03T15:51:55;1.88;;;0.80;;
41627;SDS011;27321;50.816;6.054;2023-04-03T15:54:57;1.63;;;0.77;;
41627;SDS011;27321;50.816;6.054;2023-04-03T15:57:58;1.33;;;0.68;;
41627;SDS011;27321;50.816;6.054;2023-04-03T16:01:00;1.52;;;0.88;;
41627;SDS011;27321;50.816;6.054;2023-04-03T16:07:03;0.93;;;0.57;;
41627;SDS011;27321;50.816;6.054;2023-04-03T16:10:05;1.53;;;0.70;;
41627;SDS011;27321;50.816;6.054;2023-04-03T16:13:08;1.97;;;0.90;;
41627;SDS011;27321;50.816;6.054;2023-04-03T16:16:09;2.97;;;1.07;;
41627;SDS011;27321;50.816;6.054;2023-04-03T16:19:10;1.83;;;0.70;;
41627;SDS011;27321;50.816;6.054;2023-04-03T16:22:11;1.65;;;0.80;;
41627;SDS011;27321;50.816;6.054;2023-04-03T16:25:12;2.58;;;1.10;;
41627;SDS011;27321;50.816;6.054;2023-04-03T16:28:13;1.83;;;1.10;;
41627;SDS011;27321;50.816;6.054;2023-04-03T16:31:15;3.25;;;1.73;;
41627;SDS011;27321;50.816;6.054;2023-04-03T16:34:16;1.97;;;1.63;;
41627;SDS011;27321;50.816;6.054;2023-04-03T16:37:17;12.60;;;4.87;;
41627;SDS011;27321;50.816;6.054;2023-04-03T16:40:18;5.50;;;2.90;;
41627;SDS011;27321;50.816;6.054;2023-04-03T16:43:19;3.00;;;1.83;;
41627;SDS011;27321;50.816;6.054;2023-04-03T16:46:20;2.38;;;1.33;;
41627;SDS011;27321;50.816;6.054;2023-04-03T16:49:21;3.70;;;1.20;;
41627;SDS011;27321;50.816;6.054;2023-04-03T16:52:22;2.43;;;1.40;;
41627;SDS011;27321;50.816;6.054;2023-04-03T16:55:23;1.30;;;0.90;;
41627;SDS011;27321;50.816;6.054;2023-04-03T16:58:24;3.13;;;1.00;;
41627;SDS011;27321;50.816;6.054;2023-04-03T17:01:25;2.37;;;0.93;;
41627;SDS011;27321;50.816;6.054;2023-04-03T17:04:26;1.77;;;0.80;;
41627;SDS011;27321;50.816;6.054;2023-04-03T17:07:27;5.20;;;1.07;;
41627;SDS011;27321;50.816;6.054;2023-04-03T17:10:28;1.77;;;0.70;;
41627;SDS011;27321;50.816;6.054;2023-04-03T17:13:29;2.20;;;1.13;;
41627;SDS011;27321;50.816;6.054;2023-04-03T17:16:35;4.33;;;1.10;;
41627;SDS011;27321;50.816;6.054;2023-04-03T17:19:37;4.10;;;1.20;;
41627;SDS011;27321;50.816;6.054;2023-04-03T17:22:40;1.83;;;1.10;;
41627;SDS011;27321;50.816;6.054;2023-04-03T17:25:41;1.60;;;0.90;;
41627;SDS011;27321;50.816;6.054;2023-04-03T17:28:42;4.50;;;2.70;;
41627;SDS011;27321;50.816;6.054;2023-04-03T17:31:43;1.27;;;0.90;;
41627;SDS011;27321;50.816;6.054;2023-04-03T17:34:47;2.83;;;1.23;;
41627;SDS011;27321;50.816;6.054;2023-04-03T17:37:48;1.93;;;1.17;;
41627;SDS011;27321;50.816;6.054;2023-04-03T17:40:49;4.18;;;2.22;;
41627;SDS011;27321;50.816;6.054;2023-04-03T17:43:50;3.40;;;1.23;;
41627;SDS011;27321;50.816;6.054;2023-04-03T17:46:55;3.70;;;1.20;;
41627;SDS011;27321;50.816;6.054;2023-04-03T17:49:56;1.90;;;1.17;;
41627;SDS011;27321;50.816;6.054;2023-04-03T17:52:57;4.83;;;1.23;;
41627;SDS011;27321;50.816;6.054;2023-04-03T17:55:58;4.10;;;1.40;;
41627;SDS011;27321;50.816;6.054;2023-04-03T17:59:09;2.42;;;1.02;;
41627;SDS011;27321;50.816;6.054;2023-04-03T18:02:10;4.40;;;1.30;;
41627;SDS011;27321;50.816;6.054;2023-04-03T18:05:11;2.93;;;1.40;;
41627;SDS011;27321;50.816;6.054;2023-04-03T18:08:12;2.47;;;1.50;;
41627;SDS011;27321;50.816;6.054;2023-04-03T18:11:14;4.30;;;1.93;;
41627;SDS011;27321;50.816;6.054;2023-04-03T18:14:19;5.57;;;2.63;;
41627;SDS011;27321;50.816;6.054;2023-04-03T18:17:23;3.20;;;1.60;;
41627;SDS011;27321;50.816;6.054;2023-04-03T18:20:26;4.23;;;1.27;;
41627;SDS011;27321;50.816;6.054;2023-04-03T18:23:27;2.80;;;1.13;;
41627;SDS011;27321;50.816;6.054;2023-04-03T18:26:30;3.40;;;1.83;;
41627;SDS011;27321;50.816;6.054;2023-04-03T18:29:32;2.57;;;1.23;;
41627;SDS011;27321;50.816;6.054;2023-04-03T18:32:35;3.33;;;1.30;;
41627;SDS011;27321;50.816;6.054;2023-04-03T18:35:36;12.23;;;4.37;;
41627;SDS011;27321;50.816;6.054;2023-04-03T18:38:37;7.38;;;3.38;;
41627;SDS011;27321;50.816;6.054;2023-04-03T18:41:39;5.80;;;2.13;;
41627;SDS011;27321;50.816;6.054;2023-04-03T18:44:41;4.80;;;1.52;;
41627;SDS011;27321;50.816;6.054;2023-04-03T18:47:44;3.50;;;1.77;;
41627;SDS011;27321;50.816;6.054;2023-04-03T18:50:48;3.70;;;1.60;;
41627;SDS011;27321;50.816;6.054;2023-04-03T18:53:49;2.80;;;1.17;;
41627;SDS011;27321;50.816;6.054;2023-04-03T18:56:50;7.63;;;1.67;;
41627;SDS011;27321;50.816;6.054;2023-04-03T18:59:51;4.90;;;1.47;;
41627;SDS011;27321;50.816;6.054;2023-04-03T19:02:52;2.17;;;1.42;;
41627;SDS011;27321;50.816;6.054;2023-04-03T19:05:53;5.93;;;1.60;;
41627;SDS011;27321;50.816;6.054;2023-04-03T19:08:54;4.00;;;1.13;;
41627;SDS011;27321;50.816;6.054;2023-04-03T19:11:55;3.65;;;1.30;;
41627;SDS011;27321;50.816;6.054;2023-04-03T19:14:57;3.65;;;1.27;;
41627;SDS011;27321;50.816;6.054;2023-04-03T19:17:58;5.87;;;1.50;;
41627;SDS011;27321;50.816;6.054;2023-04-03T19:20:58;2.40;;;1.23;;
41627;SDS011;27321;50.816;6.054;2023-04-03T19:24:00;4.18;;;2.03;;
41627;SDS011;27321;50.816;6.054;2023-04-03T19:27:01;4.23;;;2.00;;
41627;SDS011;27321;50.816;6.054;2023-04-03T19:30:04;4.07;;;1.63;;
41627;SDS011;27321;50.816;6.054;2023-04-03T19:33:06;5.03;;;1.90;;
41627;SDS011;27321;50.816;6.054;2023-04-03T19:36:07;4.63;;;2.53;;
41627;SDS011;27321;50.816;6.054;2023-04-03T19:39:10;7.20;;;5.07;;
41627;SDS011;27321;50.816;6.054;2023-04-03T19:42:11;8.90;;;3.70;;
41627;SDS011;27321;50.816;6.054;2023-04-03T19:45:12;7.53;;;2.75;;
41627;SDS011;27321;50.816;6.054;2023-04-03T19:48:15;3.37;;;2.20;;
41627;SDS011;27321;50.816;6.054;2023-04-03T19:51:17;3.90;;;1.80;;
41627;SDS011;27321;50.816;6.054;2023-04-03T19:54:19;2.13;;;1.50;;
41627;SDS011;27321;50.816;6.054;2023-04-03T19:57:20;6.07;;;2.10;;
41627;SDS011;27321;50.816;6.054;2023-04-03T20:00:21;2.40;;;1.37;;
41627;SDS011;27321;50.816;6.054;2023-04-03T20:03:23;6.20;;;1.90;;
41627;SDS011;27321;50.816;6.054;2023-04-03T20:06:25;7.43;;;1.67;;
41627;SDS011;27321;50.816;6.054;2023-04-03T20:09:26;5.33;;;1.67;;
41627;SDS011;27321;50.816;6.054;2023-04-03T20:12:27;3.53;;;1.73;;
41627;SDS011;27321;50.816;6.054;2023-04-03T20:15:28;3.17;;;1.60;;